createdAt,value
2022-07-27T00:00:00.944Z,20
2022-07-27T00:01:00.935Z,20
2022-07-27T00:02:00.934Z,20
2022-07-27T00:03:00.907Z,20
2022-07-27T00:04:00.900Z,20
2022-07-27T00:05:00.886Z,20
2022-07-27T00:06:00.873Z,20
2022-07-27T00:07:00.859Z,20
2022-07-27T00:08:00.846Z,20
2022-07-27T00:09:00.889Z,20
2022-07-27T00:10:00.830Z,20
2022-07-27T00:11:00.822Z,20
2022-07-27T00:12:00.812Z,20
2022-07-27T00:13:00.793Z,20
2022-07-27T00:14:00.789Z,20
2022-07-27T00:15:00.770Z,20
2022-07-27T00:16:00.764Z,20
2022-07-27T00:17:00.751Z,20
2022-07-27T00:18:00.742Z,20
2022-07-27T00:19:00.737Z,20
2022-07-27T00:20:00.744Z,20
2022-07-27T00:21:00.706Z,20
2022-07-27T00:22:00.712Z,20
2022-07-27T00:23:00.686Z,20
2022-07-27T00:24:00.681Z,20
2022-07-27T00:25:00.684Z,20
2022-07-27T00:26:00.661Z,20
2022-07-27T00:27:00.642Z,20
2022-07-27T00:28:00.647Z,20
2022-07-27T00:29:00.620Z,20
2022-07-27T00:30:00.623Z,20
2022-07-27T00:31:00.609Z,20
2022-07-27T00:32:00.588Z,20
2022-07-27T00:33:00.578Z,20
2022-07-27T00:34:00.568Z,20
2022-07-27T00:35:00.553Z,20
2022-07-27T00:36:00.551Z,20
2022-07-27T00:37:00.547Z,20
2022-07-27T00:38:00.529Z,20
2022-07-27T00:39:00.527Z,20
2022-07-27T00:40:00.504Z,20
2022-07-27T00:41:00.493Z,20
2022-07-27T00:42:00.481Z,20
2022-07-27T00:43:00.484Z,20
2022-07-27T00:44:00.456Z,20
2022-07-27T00:45:00.450Z,20
2022-07-27T00:46:00.434Z,20
2022-07-27T00:47:00.424Z,20
2022-07-27T00:48:00.442Z,20
2022-07-27T00:49:00.402Z,20
2022-07-27T00:50:00.401Z,20
2022-07-27T00:51:00.382Z,20
2022-07-27T00:52:00.395Z,20
2022-07-27T00:53:00.355Z,20
2022-07-27T00:54:00.355Z,20
2022-07-27T00:55:00.336Z,20
2022-07-27T00:56:00.338Z,20
2022-07-27T00:57:00.318Z,20
2022-07-27T00:58:00.313Z,20
2022-07-27T00:59:00.300Z,20
2022-07-27T01:00:00.306Z,20
2022-07-27T01:01:00.268Z,24
2022-07-27T01:02:00.266Z,20
2022-07-27T01:03:07.806Z,20
2022-07-27T01:04:08.821Z,20
2022-07-27T01:05:07.800Z,20
2022-07-27T01:06:07.776Z,20
2022-07-27T01:07:07.779Z,20
2022-07-27T01:08:07.748Z,20
2022-07-27T01:09:07.739Z,20
2022-07-27T01:10:08.759Z,20
2022-07-27T01:11:07.717Z,20
2022-07-27T01:12:07.715Z,20
2022-07-27T01:13:00.140Z,20
2022-07-27T01:14:07.707Z,20
2022-07-27T01:15:07.678Z,20
2022-07-27T01:16:00.109Z,20
2022-07-27T01:17:00.101Z,20
2022-07-27T01:18:07.647Z,20
2022-07-27T01:19:00.080Z,20
2022-07-27T01:20:00.072Z,20
2022-07-27T01:21:00.064Z,20
2022-07-27T01:22:00.047Z,20
2022-07-27T01:23:07.601Z,20
2022-07-27T01:24:00.024Z,20
2022-07-27T01:25:00.015Z,20
2022-07-27T01:26:08.836Z,20
2022-07-27T01:26:59.992Z,20
2022-07-27T01:28:07.552Z,20
2022-07-27T01:28:59.978Z,20
2022-07-27T01:29:59.959Z,20
2022-07-27T01:30:59.946Z,20
2022-07-27T01:31:59.938Z,20
2022-07-27T01:33:07.495Z,20
2022-07-27T01:34:07.468Z,20
2022-07-27T01:35:07.470Z,20
2022-07-27T01:36:07.444Z,20
2022-07-27T01:37:07.436Z,20
2022-07-27T01:38:07.431Z,20
2022-07-27T01:39:08.463Z,20
2022-07-27T01:39:59.855Z,20
2022-07-27T01:40:59.843Z,20
2022-07-27T01:41:59.831Z,20
2022-07-27T01:42:59.821Z,20
2022-07-27T01:43:59.827Z,20
2022-07-27T01:44:59.810Z,20
2022-07-27T01:45:59.799Z,20
2022-07-27T01:46:59.776Z,20
2022-07-27T01:47:59.773Z,20
2022-07-27T01:48:59.771Z,20
2022-07-27T01:49:59.752Z,20
2022-07-27T01:50:59.730Z,20
2022-07-27T01:51:59.732Z,20
2022-07-27T01:53:06.312Z,20
2022-07-27T01:53:59.700Z,20
2022-07-27T01:54:59.691Z,20
2022-07-27T01:55:59.680Z,20
2022-07-27T01:56:59.673Z,20
2022-07-27T01:57:59.670Z,20
2022-07-27T01:58:59.671Z,20
2022-07-27T01:59:59.635Z,20
2022-07-27T02:00:59.626Z,20
2022-07-27T02:01:59.618Z,20
2022-07-27T02:02:59.607Z,20
2022-07-27T02:03:59.606Z,20
2022-07-27T02:04:59.591Z,20
2022-07-27T02:05:59.582Z,20
2022-07-27T02:06:59.565Z,20
2022-07-27T02:07:59.548Z,20
2022-07-27T02:08:59.548Z,20
2022-07-27T02:09:59.553Z,20
2022-07-27T02:10:59.516Z,20
2022-07-27T02:11:59.507Z,20
2022-07-27T02:12:59.513Z,20
2022-07-27T02:13:59.485Z,20
2022-07-27T02:14:59.477Z,20
2022-07-27T02:15:59.475Z,20
2022-07-27T02:16:59.472Z,20
2022-07-27T02:17:59.443Z,20
2022-07-27T02:18:59.438Z,20
2022-07-27T02:19:59.420Z,20
2022-07-27T02:20:59.411Z,20
2022-07-27T02:21:59.401Z,20
2022-07-27T02:22:59.391Z,20
2022-07-27T02:23:59.378Z,20
2022-07-27T02:24:59.363Z,20
2022-07-27T02:25:59.352Z,20
2022-07-27T02:26:59.349Z,20
2022-07-27T02:27:59.346Z,20
2022-07-27T02:28:59.324Z,20
2022-07-27T02:29:59.320Z,20
2022-07-27T02:30:59.308Z,20
2022-07-27T02:31:59.290Z,20
2022-07-27T02:32:59.284Z,20
2022-07-27T02:33:59.267Z,20
2022-07-27T02:34:59.256Z,20
2022-07-27T02:35:59.248Z,20
2022-07-27T02:36:59.232Z,20
2022-07-27T02:37:59.224Z,20
2022-07-27T02:38:59.215Z,20
2022-07-27T02:39:59.202Z,20
2022-07-27T02:40:59.191Z,20
2022-07-27T02:41:59.178Z,20
2022-07-27T02:42:59.172Z,20
2022-07-27T02:43:59.165Z,20
2022-07-27T02:44:59.155Z,20
2022-07-27T02:45:59.140Z,20
2022-07-27T02:46:59.131Z,20
2022-07-27T02:47:59.148Z,20
2022-07-27T02:48:59.104Z,20
2022-07-27T02:49:59.095Z,20
2022-07-27T02:50:59.081Z,20
2022-07-27T02:51:59.072Z,20
2022-07-27T02:52:59.062Z,20
2022-07-27T02:53:59.049Z,20
2022-07-27T02:54:59.034Z,20
2022-07-27T02:55:59.027Z,20
2022-07-27T02:56:59.019Z,20
2022-07-27T02:57:59.007Z,20
2022-07-27T02:58:59.002Z,20
2022-07-27T02:59:58.984Z,20
2022-07-27T03:00:58.974Z,28
2022-07-27T03:01:58.966Z,28
2022-07-27T03:02:58.944Z,28
2022-07-27T03:03:58.980Z,28
2022-07-27T03:04:58.926Z,28
2022-07-27T03:05:58.922Z,24
2022-07-27T03:06:58.906Z,24
2022-07-27T03:07:58.906Z,28
2022-07-27T03:08:58.886Z,28
2022-07-27T03:09:58.878Z,28
2022-07-27T03:10:58.860Z,28
2022-07-27T03:11:58.855Z,28
2022-07-27T03:12:58.853Z,32
2022-07-27T03:13:58.839Z,28
2022-07-27T03:14:58.826Z,24
2022-07-27T03:15:58.807Z,20
2022-07-27T03:16:58.814Z,24
2022-07-27T03:17:58.782Z,24
2022-07-27T03:18:58.783Z,24
2022-07-27T03:19:58.760Z,28
2022-07-27T03:20:58.754Z,28
2022-07-27T03:21:58.743Z,28
2022-07-27T03:22:58.733Z,32
2022-07-27T03:23:58.728Z,32
2022-07-27T03:24:58.712Z,36
2022-07-27T03:25:58.699Z,36
2022-07-27T03:26:58.703Z,40
2022-07-27T03:27:58.674Z,44
2022-07-27T03:28:58.683Z,44
2022-07-27T03:29:58.651Z,48
2022-07-27T03:30:58.646Z,52
2022-07-27T03:31:58.633Z,56
2022-07-27T03:32:58.628Z,60
2022-07-27T03:33:58.614Z,68
2022-07-27T03:34:58.600Z,72
2022-07-27T03:35:58.589Z,76
2022-07-27T03:36:58.589Z,80
2022-07-27T03:37:58.593Z,88
2022-07-27T03:38:58.555Z,92
2022-07-27T03:39:58.550Z,88
2022-07-27T03:40:58.533Z,96
2022-07-27T03:41:58.539Z,100
2022-07-27T03:42:58.525Z,112
2022-07-27T03:43:58.500Z,116
2022-07-27T03:44:58.491Z,128
2022-07-27T03:45:58.497Z,140
2022-07-27T03:46:58.468Z,148
2022-07-27T03:47:58.464Z,156
2022-07-27T03:48:58.445Z,168
2022-07-27T03:49:58.447Z,180
2022-07-27T03:50:58.427Z,188
2022-07-27T03:51:58.410Z,196
2022-07-27T03:52:58.399Z,204
2022-07-27T03:53:58.391Z,216
2022-07-27T03:54:58.402Z,228
2022-07-27T03:55:58.369Z,236
2022-07-27T03:56:58.362Z,244
2022-07-27T03:57:58.361Z,248
2022-07-27T03:58:58.338Z,256
2022-07-27T03:59:58.329Z,264
2022-07-27T04:00:58.318Z,268
2022-07-27T04:01:58.303Z,276
2022-07-27T04:02:58.292Z,288
2022-07-27T04:03:58.284Z,296
2022-07-27T04:04:58.293Z,304
2022-07-27T04:05:58.272Z,308
2022-07-27T04:06:58.251Z,320
2022-07-27T04:07:58.247Z,324
2022-07-27T04:08:58.225Z,328
2022-07-27T04:09:58.218Z,340
2022-07-27T04:10:58.210Z,340
2022-07-27T04:11:58.215Z,348
2022-07-27T04:12:58.184Z,352
2022-07-27T04:13:58.181Z,356
2022-07-27T04:14:58.160Z,360
2022-07-27T04:15:58.153Z,368
2022-07-27T04:16:58.157Z,376
2022-07-27T04:17:58.150Z,380
2022-07-27T04:18:58.122Z,380
2022-07-27T04:19:58.109Z,380
2022-07-27T04:20:58.106Z,384
2022-07-27T04:21:58.090Z,388
2022-07-27T04:22:58.084Z,400
2022-07-27T04:23:58.075Z,388
2022-07-27T04:24:58.065Z,392
2022-07-27T04:25:58.051Z,396
2022-07-27T04:26:58.040Z,404
2022-07-27T04:27:58.038Z,420
2022-07-27T04:28:58.026Z,432
2022-07-27T04:29:58.003Z,448
2022-07-27T04:30:57.989Z,464
2022-07-27T04:31:57.988Z,488
2022-07-27T04:32:57.982Z,500
2022-07-27T04:33:57.961Z,512
2022-07-27T04:34:58.899Z,524
2022-07-27T04:35:57.935Z,552
2022-07-27T04:36:57.926Z,584
2022-07-27T04:37:57.917Z,656
2022-07-27T04:38:57.906Z,824
2022-07-27T04:39:57.896Z,960
2022-07-27T04:40:57.911Z,1016
2022-07-27T04:41:57.870Z,1064
2022-07-27T04:42:57.869Z,1116
2022-07-27T04:43:57.852Z,1164
2022-07-27T04:44:57.894Z,1208
2022-07-27T04:45:57.834Z,1252
2022-07-27T04:46:57.822Z,1296
2022-07-27T04:47:57.814Z,1340
2022-07-27T04:48:57.792Z,1388
2022-07-27T04:49:57.783Z,1416
2022-07-27T04:50:57.780Z,1436
2022-07-27T04:51:57.761Z,1472
2022-07-27T04:52:57.766Z,1512
2022-07-27T04:53:57.771Z,1552
2022-07-27T04:54:57.729Z,1488
2022-07-27T04:55:57.738Z,1644
2022-07-27T04:56:57.716Z,1688
2022-07-27T04:57:57.747Z,1712
2022-07-27T04:58:57.686Z,1744
2022-07-27T04:59:57.679Z,1784
2022-07-27T05:00:57.669Z,1820
2022-07-27T05:01:57.661Z,1848
2022-07-27T05:02:57.646Z,1884
2022-07-27T05:03:57.641Z,1916
2022-07-27T05:04:57.625Z,1968
2022-07-27T05:05:57.632Z,2008
2022-07-27T05:06:57.614Z,2044
2022-07-27T05:07:57.642Z,2076
2022-07-27T05:08:57.579Z,2108
2022-07-27T05:09:57.579Z,2152
2022-07-27T05:10:57.582Z,2208
2022-07-27T05:11:57.554Z,2240
2022-07-27T05:12:57.543Z,2264
2022-07-27T05:13:57.555Z,2292
2022-07-27T05:14:57.534Z,2324
2022-07-27T05:15:57.527Z,2384
2022-07-27T05:16:57.514Z,2456
2022-07-27T05:17:57.486Z,2508
2022-07-27T05:18:57.482Z,2548
2022-07-27T05:19:57.466Z,2580
2022-07-27T05:20:57.454Z,2588
2022-07-27T05:21:57.468Z,2616
2022-07-27T05:22:57.432Z,2656
2022-07-27T05:23:57.420Z,2704
2022-07-27T05:24:57.415Z,2748
2022-07-27T05:25:57.401Z,2756
2022-07-27T05:26:57.390Z,2756
2022-07-27T05:27:57.382Z,2772
2022-07-27T05:28:57.377Z,2772
2022-07-27T05:29:57.379Z,2752
2022-07-27T05:30:57.352Z,2732
2022-07-27T05:31:57.339Z,2740
2022-07-27T05:32:57.334Z,2780
2022-07-27T05:33:57.321Z,2872
2022-07-27T05:34:57.322Z,2956
2022-07-27T05:35:57.287Z,3044
2022-07-27T05:36:57.299Z,3072
2022-07-27T05:37:57.282Z,3056
2022-07-27T05:38:57.262Z,3092
2022-07-27T05:39:57.254Z,3168
2022-07-27T05:40:57.231Z,3176
2022-07-27T05:41:57.227Z,3152
2022-07-27T05:42:57.235Z,3148
2022-07-27T05:43:57.205Z,3164
2022-07-27T05:44:57.200Z,3160
2022-07-27T05:45:57.180Z,3120
2022-07-27T05:46:57.187Z,3112
2022-07-27T05:47:57.163Z,3240
2022-07-27T05:48:57.147Z,3756
2022-07-27T05:49:57.137Z,3160
2022-07-27T05:50:57.131Z,2976
2022-07-27T05:51:57.118Z,3076
2022-07-27T05:52:57.106Z,3448
2022-07-27T05:53:57.092Z,3464
2022-07-27T05:54:57.123Z,3348
2022-07-27T05:55:57.071Z,3576
2022-07-27T05:56:57.065Z,3684
2022-07-27T05:57:57.056Z,3792
2022-07-27T05:58:57.043Z,3700
2022-07-27T05:59:57.031Z,3656
2022-07-27T06:00:57.018Z,3808
2022-07-27T06:01:57.011Z,4220
2022-07-27T06:02:56.999Z,4232
2022-07-27T06:03:57.009Z,4468
2022-07-27T06:04:57.015Z,4012
2022-07-27T06:05:56.962Z,4008
2022-07-27T06:06:56.949Z,4164
2022-07-27T06:07:56.942Z,4252
2022-07-27T06:08:56.945Z,4240
2022-07-27T06:09:56.925Z,4284
2022-07-27T06:10:56.915Z,4080
2022-07-27T06:11:56.893Z,3980
2022-07-27T06:12:56.888Z,4292
2022-07-27T06:13:56.881Z,4164
2022-07-27T06:14:56.877Z,4112
2022-07-27T06:15:56.862Z,5420
2022-07-27T06:16:56.848Z,4568
2022-07-27T06:17:56.830Z,5284
2022-07-27T06:18:56.847Z,4536
2022-07-27T06:19:56.821Z,4708
2022-07-27T06:20:56.814Z,5116
2022-07-27T06:21:56.806Z,4700
2022-07-27T06:22:56.774Z,5340
2022-07-27T06:23:56.762Z,5800
2022-07-27T06:24:56.776Z,5440
2022-07-27T06:25:56.749Z,5508
2022-07-27T06:26:56.740Z,5452
2022-07-27T06:27:56.725Z,5188
2022-07-27T06:28:56.721Z,5220
2022-07-27T06:29:56.707Z,4880
2022-07-27T06:30:56.687Z,5172
2022-07-27T06:31:56.685Z,5140
2022-07-27T06:32:56.678Z,5132
2022-07-27T06:33:56.670Z,4952
2022-07-27T06:34:56.652Z,4672
2022-07-27T06:35:56.633Z,4216
2022-07-27T06:36:56.654Z,5124
2022-07-27T06:37:56.625Z,5148
2022-07-27T06:38:56.614Z,5232
2022-07-27T06:39:56.601Z,5372
2022-07-27T06:40:56.585Z,5444
2022-07-27T06:41:56.570Z,5444
2022-07-27T06:42:56.561Z,5524
2022-07-27T06:43:56.578Z,5592
2022-07-27T06:44:56.539Z,4952
2022-07-27T06:45:56.540Z,4332
2022-07-27T06:46:56.537Z,5432
2022-07-27T06:47:56.517Z,5360
2022-07-27T06:48:56.511Z,5144
2022-07-27T06:49:56.493Z,4904
2022-07-27T06:50:56.481Z,4256
2022-07-27T06:51:56.467Z,5476
2022-07-27T06:52:56.461Z,5400
2022-07-27T06:53:56.450Z,5300
2022-07-27T06:54:56.446Z,5328
2022-07-27T06:55:56.431Z,5416
2022-07-27T06:56:56.417Z,4192
2022-07-27T06:57:56.422Z,4340
2022-07-27T06:58:56.392Z,5800
2022-07-27T06:59:56.384Z,6124
2022-07-27T07:00:56.410Z,4380
2022-07-27T07:01:56.370Z,4680
2022-07-27T07:02:56.354Z,5964
2022-07-27T07:03:56.348Z,7176
2022-07-27T07:04:56.335Z,6972
2022-07-27T07:05:56.321Z,6660
2022-07-27T07:06:56.314Z,6724
2022-07-27T07:07:56.332Z,8132
2022-07-27T07:08:56.303Z,5248
2022-07-27T07:09:56.286Z,4768
2022-07-27T07:10:56.263Z,5228
2022-07-27T07:11:56.259Z,5792
2022-07-27T07:12:56.259Z,5804
2022-07-27T07:13:56.243Z,7972
2022-07-27T07:14:56.230Z,6496
2022-07-27T07:15:56.215Z,6260
2022-07-27T07:16:56.209Z,8576
2022-07-27T07:17:56.195Z,9052
2022-07-27T07:18:56.184Z,8420
2022-07-27T07:19:56.195Z,8260
2022-07-27T07:20:56.183Z,8308
2022-07-27T07:21:56.179Z,8548
2022-07-27T07:22:56.166Z,8852
2022-07-27T07:23:56.135Z,9104
2022-07-27T07:24:56.168Z,6724
2022-07-27T07:25:56.109Z,8600
2022-07-27T07:26:56.100Z,9612
2022-07-27T07:27:56.085Z,9616
2022-07-27T07:28:56.093Z,9532
2022-07-27T07:29:56.069Z,9736
2022-07-27T07:30:56.052Z,10024
2022-07-27T07:31:56.046Z,9936
2022-07-27T07:32:56.041Z,10348
2022-07-27T07:33:56.028Z,10012
2022-07-27T07:34:56.028Z,7592
2022-07-27T07:35:56.010Z,4944
2022-07-27T07:36:56.002Z,6320
2022-07-27T07:37:55.989Z,5044
2022-07-27T07:38:55.969Z,5192
2022-07-27T07:39:56.000Z,5460
2022-07-27T07:40:55.957Z,5980
2022-07-27T07:41:55.939Z,6784
2022-07-27T07:42:55.934Z,7544
2022-07-27T07:43:55.947Z,6812
2022-07-27T07:44:55.914Z,6604
2022-07-27T07:45:56.815Z,6576
2022-07-27T07:46:55.912Z,6296
2022-07-27T07:47:55.904Z,5708
2022-07-27T07:48:55.868Z,5516
2022-07-27T07:49:55.876Z,5096
2022-07-27T07:50:55.851Z,4564
2022-07-27T07:51:55.831Z,4216
2022-07-27T07:52:55.849Z,4048
2022-07-27T07:53:55.817Z,3800
2022-07-27T07:54:55.810Z,3604
2022-07-27T07:55:55.795Z,3452
2022-07-27T07:56:55.896Z,3484
2022-07-27T07:57:55.780Z,3660
2022-07-27T07:58:55.759Z,3984
2022-07-27T07:59:55.756Z,4408
2022-07-27T08:00:55.747Z,4808
2022-07-27T08:01:55.729Z,5128
2022-07-27T08:02:56.318Z,5504
2022-07-27T08:03:55.742Z,5888
2022-07-27T08:04:55.698Z,6260
2022-07-27T08:05:55.691Z,6576
2022-07-27T08:06:55.682Z,6740
2022-07-27T08:07:55.705Z,7000
2022-07-27T08:08:55.677Z,7156
2022-07-27T08:09:55.646Z,7272
2022-07-27T08:10:55.643Z,7308
2022-07-27T08:11:55.627Z,7364
2022-07-27T08:12:55.624Z,7392
2022-07-27T08:13:55.661Z,7420
2022-07-27T08:14:55.595Z,7548
2022-07-27T08:15:55.580Z,7720
2022-07-27T08:16:55.581Z,7848
2022-07-27T08:17:55.560Z,7868
2022-07-27T08:18:55.569Z,7932
2022-07-27T08:19:55.545Z,8216
2022-07-27T08:20:56.315Z,8512
2022-07-27T08:21:55.520Z,8828
2022-07-27T08:22:55.503Z,9096
2022-07-27T08:23:55.494Z,9408
2022-07-27T08:24:55.485Z,10164
2022-07-27T08:25:55.476Z,12352
2022-07-27T08:26:55.466Z,19712
2022-07-27T08:27:55.452Z,13420
2022-07-27T08:28:55.469Z,12276
2022-07-27T08:29:55.430Z,13520
2022-07-27T08:30:55.420Z,19744
2022-07-27T08:31:55.407Z,14392
2022-07-27T08:32:55.397Z,10788
2022-07-27T08:33:55.403Z,10224
2022-07-27T08:34:55.380Z,10564
2022-07-27T08:35:55.409Z,9728
2022-07-27T08:36:55.351Z,9648
2022-07-27T08:37:55.346Z,9276
2022-07-27T08:38:55.367Z,8500
2022-07-27T08:40:55.311Z,6584
2022-07-27T08:41:55.337Z,6036
2022-07-27T08:42:55.291Z,5920
2022-07-27T08:43:55.293Z,5920
2022-07-27T08:44:55.279Z,6132
2022-07-27T08:45:55.257Z,6616
2022-07-27T08:46:55.256Z,7360
2022-07-27T08:47:55.246Z,8144
2022-07-27T08:48:55.228Z,10048
2022-07-27T08:49:55.262Z,12756
2022-07-27T08:50:55.236Z,16156
2022-07-27T08:51:55.211Z,17920
2022-07-27T08:52:55.186Z,10956
2022-07-27T08:53:55.180Z,13660
2022-07-27T08:54:55.189Z,18368
2022-07-27T08:55:55.158Z,18048
2022-07-27T08:56:55.152Z,17504
2022-07-27T08:57:55.142Z,16864
2022-07-27T08:58:55.121Z,16336
2022-07-27T08:59:55.136Z,16092
2022-07-27T09:00:55.107Z,15640
2022-07-27T09:01:55.107Z,15592
2022-07-27T09:02:55.079Z,15276
2022-07-27T09:03:55.078Z,15012
2022-07-27T09:04:55.100Z,15000
2022-07-27T09:05:55.058Z,15208
2022-07-27T09:06:55.050Z,15184
2022-07-27T09:07:55.103Z,14096
2022-07-27T09:08:55.022Z,15400
2022-07-27T09:09:55.015Z,14280
2022-07-27T09:10:55.000Z,7560
2022-07-27T09:11:55.003Z,7104
2022-07-27T09:12:54.985Z,7504
2022-07-27T09:13:54.970Z,7744
2022-07-27T09:14:54.975Z,7852
2022-07-27T09:15:54.953Z,8100
2022-07-27T09:16:54.934Z,8452
2022-07-27T09:17:54.958Z,8412
2022-07-27T09:18:54.917Z,8264
2022-07-27T09:19:54.909Z,8608
2022-07-27T09:20:54.933Z,10064
2022-07-27T09:21:54.893Z,10740
2022-07-27T09:22:54.908Z,10344
2022-07-27T09:23:54.862Z,10848
2022-07-27T09:24:54.880Z,12980
2022-07-27T09:25:54.851Z,23008
2022-07-27T09:26:54.842Z,14436
2022-07-27T09:27:54.824Z,13552
2022-07-27T09:28:54.862Z,13512
2022-07-27T09:29:54.805Z,20000
2022-07-27T09:30:54.891Z,13524
2022-07-27T09:31:54.786Z,13108
2022-07-27T09:32:54.777Z,12864
2022-07-27T09:33:54.761Z,13064
2022-07-27T09:34:54.755Z,18464
2022-07-27T09:35:54.751Z,23840
2022-07-27T09:36:54.737Z,14772
2022-07-27T09:37:54.721Z,21312
2022-07-27T09:38:54.703Z,12892
2022-07-27T09:39:54.693Z,12124
2022-07-27T09:40:54.689Z,11732
2022-07-27T09:41:54.700Z,11468
2022-07-27T09:42:54.667Z,11472
2022-07-27T09:43:54.650Z,11280
2022-07-27T09:44:54.654Z,11432
2022-07-27T09:45:54.633Z,11616
2022-07-27T09:46:54.771Z,12216
2022-07-27T09:47:54.622Z,12264
2022-07-27T09:48:54.603Z,11848
2022-07-27T09:49:54.596Z,14364
2022-07-27T09:50:54.574Z,10792
2022-07-27T09:51:54.571Z,10164
2022-07-27T09:52:54.569Z,10196
2022-07-27T09:53:54.553Z,15884
2022-07-27T09:54:54.705Z,20160
2022-07-27T09:55:54.548Z,10860
2022-07-27T09:56:54.508Z,10352
2022-07-27T09:57:54.501Z,10572
2022-07-27T09:58:54.495Z,10428
2022-07-27T09:59:54.478Z,18592
2022-07-27T10:00:54.483Z,22016
2022-07-27T10:01:54.456Z,20704
2022-07-27T10:02:54.447Z,22560
2022-07-27T10:03:54.440Z,15188
2022-07-27T10:04:54.441Z,17280
2022-07-27T10:05:54.431Z,21728
2022-07-27T10:06:54.410Z,16080
2022-07-27T10:07:54.410Z,18624
2022-07-27T10:08:54.392Z,18848
2022-07-27T10:09:54.377Z,18304
2022-07-27T10:10:54.371Z,24096
2022-07-27T10:11:54.352Z,24256
2022-07-27T10:12:54.351Z,22912
2022-07-27T10:13:54.332Z,21984
2022-07-27T10:14:54.323Z,21504
2022-07-27T10:15:54.319Z,21216
2022-07-27T10:16:54.314Z,20960
2022-07-27T10:17:54.287Z,20960
2022-07-27T10:18:54.283Z,20928
2022-07-27T10:19:54.268Z,20704
2022-07-27T10:20:54.261Z,21696
2022-07-27T10:21:54.308Z,22176
2022-07-27T10:22:54.277Z,21248
2022-07-27T10:23:54.232Z,17888
2022-07-27T10:24:54.236Z,14748
2022-07-27T10:25:54.208Z,14292
2022-07-27T10:26:54.204Z,14260
2022-07-27T10:27:54.183Z,14552
2022-07-27T10:28:54.198Z,14164
2022-07-27T10:29:54.184Z,13868
2022-07-27T10:30:54.202Z,13700
2022-07-27T10:31:54.152Z,13848
2022-07-27T10:32:54.141Z,13884
2022-07-27T10:33:54.118Z,13780
2022-07-27T10:34:54.125Z,13916
2022-07-27T10:35:54.111Z,13964
2022-07-27T10:36:54.095Z,13832
2022-07-27T10:37:54.090Z,13736
2022-07-27T10:38:54.107Z,14188
2022-07-27T10:39:54.058Z,14360
2022-07-27T10:40:54.050Z,14792
2022-07-27T10:41:54.035Z,22176
2022-07-27T10:42:54.037Z,26080
2022-07-27T10:43:54.015Z,23744
2022-07-27T10:44:54.010Z,12672
2022-07-27T10:45:54.032Z,14108
2022-07-27T10:46:53.992Z,11884
2022-07-27T10:47:53.980Z,11044
2022-07-27T10:48:53.966Z,10208
2022-07-27T10:49:53.957Z,9032
2022-07-27T10:50:53.947Z,8376
2022-07-27T10:51:53.940Z,7960
2022-07-27T10:52:53.926Z,8912
2022-07-27T10:53:53.920Z,8052
2022-07-27T10:54:53.914Z,8292
2022-07-27T10:55:53.903Z,8172
2022-07-27T10:56:53.906Z,8044
2022-07-27T10:57:53.896Z,7800
2022-07-27T10:58:53.869Z,7600
2022-07-27T10:59:53.859Z,7640
2022-07-27T11:00:53.845Z,7608
2022-07-27T11:01:53.849Z,7656
2022-07-27T11:02:53.856Z,8524
2022-07-27T11:03:53.814Z,7824
2022-07-27T11:04:53.801Z,7996
2022-07-27T11:05:53.780Z,8156
2022-07-27T11:06:53.798Z,8568
2022-07-27T11:07:53.774Z,9368
2022-07-27T11:08:53.751Z,10916
2022-07-27T11:09:53.764Z,12828
2022-07-27T11:10:53.726Z,15384
2022-07-27T11:11:53.720Z,15756
2022-07-27T11:12:53.723Z,34912
2022-07-27T11:13:53.699Z,76352
2022-07-27T11:14:53.694Z,28384
2022-07-27T11:15:53.679Z,43456
2022-07-27T11:16:53.686Z,74976
2022-07-27T11:17:53.663Z,82368
2022-07-27T11:18:53.672Z,82784
2022-07-27T11:19:53.631Z,81312
2022-07-27T11:20:53.623Z,81088
2022-07-27T11:21:53.618Z,80064
2022-07-27T11:23:53.591Z,76928
2022-07-27T11:24:53.581Z,55360
2022-07-27T11:25:53.575Z,76960
2022-07-27T11:26:53.569Z,13956
2022-07-27T11:27:53.551Z,17228
2022-07-27T11:28:53.541Z,13308
2022-07-27T11:29:53.527Z,13308
2022-07-27T11:30:53.518Z,13264
2022-07-27T11:31:53.551Z,12884
2022-07-27T11:32:53.566Z,13152
2022-07-27T11:33:53.535Z,12108
2022-07-27T11:34:53.508Z,11412
2022-07-27T11:35:53.471Z,10540
2022-07-27T11:36:53.468Z,9776
2022-07-27T11:37:53.451Z,9660
2022-07-27T11:38:53.461Z,9676
2022-07-27T11:39:53.425Z,9536
2022-07-27T11:40:53.411Z,9264
2022-07-27T11:41:53.407Z,9060
2022-07-27T11:42:53.398Z,9008
2022-07-27T11:43:53.389Z,8768
2022-07-27T11:44:53.374Z,8620
2022-07-27T11:45:53.359Z,8756
2022-07-27T11:46:53.355Z,9328
2022-07-27T11:47:53.369Z,9860
2022-07-27T11:48:53.329Z,10420
2022-07-27T11:49:53.319Z,11536
2022-07-27T11:50:53.333Z,14340
2022-07-27T11:51:53.312Z,21600
2022-07-27T11:52:53.286Z,68000
2022-07-27T11:53:53.276Z,34880
2022-07-27T11:54:53.264Z,47872
2022-07-27T11:55:53.281Z,83488
2022-07-27T11:56:53.249Z,79136
2022-07-27T11:57:53.235Z,74368
2022-07-27T11:58:53.223Z,74240
2022-07-27T11:59:53.209Z,78176
2022-07-27T12:00:53.203Z,75872
2022-07-27T12:01:53.191Z,29728
2022-07-27T12:02:53.185Z,24288
2022-07-27T12:03:53.192Z,22752
2022-07-27T12:04:53.201Z,60864
2022-07-27T12:05:53.152Z,36000
2022-07-27T12:06:53.146Z,14916
2022-07-27T12:07:53.160Z,12820
2022-07-27T12:08:53.118Z,11796
2022-07-27T12:09:53.114Z,11768
2022-07-27T12:10:53.133Z,11248
2022-07-27T12:11:53.092Z,10960
2022-07-27T12:12:53.074Z,10616
2022-07-27T12:13:53.071Z,10480
2022-07-27T12:14:53.063Z,10408
2022-07-27T12:15:53.049Z,10144
2022-07-27T12:16:53.037Z,10112
2022-07-27T12:17:53.026Z,9456
2022-07-27T12:18:53.015Z,8392
2022-07-27T12:19:53.005Z,7244
2022-07-27T12:20:53.004Z,6756
2022-07-27T12:21:53.007Z,6292
2022-07-27T12:22:52.992Z,6076
2022-07-27T12:23:52.960Z,5952
2022-07-27T12:24:52.973Z,5992
2022-07-27T12:25:52.948Z,5976
2022-07-27T12:26:53.032Z,5936
2022-07-27T12:27:52.923Z,5852
2022-07-27T12:28:52.938Z,5808
2022-07-27T12:29:52.909Z,5912
2022-07-27T12:30:52.894Z,6124
2022-07-27T12:31:52.888Z,6440
2022-07-27T12:32:52.872Z,6900
2022-07-27T12:33:52.861Z,7332
2022-07-27T12:34:52.848Z,7644
2022-07-27T12:35:52.845Z,7936
2022-07-27T12:36:52.832Z,8248
2022-07-27T12:37:52.817Z,8700
2022-07-27T12:38:52.805Z,9344
2022-07-27T12:39:52.801Z,10204
2022-07-27T12:40:52.786Z,10900
2022-07-27T12:41:52.785Z,11472
2022-07-27T12:42:52.761Z,12328
2022-07-27T12:43:52.765Z,13228
2022-07-27T12:44:52.768Z,14076
2022-07-27T12:45:52.736Z,14228
2022-07-27T12:46:52.718Z,14304
2022-07-27T12:47:52.713Z,15296
2022-07-27T12:48:52.706Z,14864
2022-07-27T12:49:52.696Z,13908
2022-07-27T12:50:52.683Z,12960
2022-07-27T12:51:52.695Z,12016
2022-07-27T12:52:52.659Z,11080
2022-07-27T12:53:52.650Z,10356
2022-07-27T12:54:52.640Z,9704
2022-07-27T12:55:52.640Z,9400
2022-07-27T12:56:52.617Z,9076
2022-07-27T12:57:52.629Z,8988
2022-07-27T12:58:52.598Z,9076
2022-07-27T12:59:52.594Z,9496
2022-07-27T13:00:52.574Z,9584
2022-07-27T13:01:52.564Z,9832
2022-07-27T13:02:52.556Z,9720
2022-07-27T13:03:52.547Z,9524
2022-07-27T13:04:52.535Z,9532
2022-07-27T13:05:52.524Z,10232
2022-07-27T13:06:52.510Z,12084
2022-07-27T13:07:52.515Z,13272
2022-07-27T13:08:52.485Z,16248
2022-07-27T13:09:52.477Z,17760
2022-07-27T13:10:52.465Z,20096
2022-07-27T13:11:52.453Z,22080
2022-07-27T13:12:52.449Z,19936
2022-07-27T13:13:52.436Z,18432
2022-07-27T13:14:52.420Z,16656
2022-07-27T13:15:52.408Z,15240
2022-07-27T13:16:52.406Z,14312
2022-07-27T13:17:52.390Z,13808
2022-07-27T13:18:52.401Z,13756
2022-07-27T13:19:52.390Z,13892
2022-07-27T13:20:52.368Z,14244
2022-07-27T13:21:52.358Z,9252
2022-07-27T13:22:52.341Z,7276
2022-07-27T13:23:52.332Z,7696
2022-07-27T13:24:52.318Z,8216
2022-07-27T13:25:52.315Z,9260
2022-07-27T13:26:52.296Z,9640
2022-07-27T13:27:52.300Z,9572
2022-07-27T13:28:52.320Z,9504
2022-07-27T13:29:52.264Z,9120